createdAt,value
2023-02-16T00:00:23.097Z,142.27
2023-02-16T00:02:52.085Z,151.33
2023-02-16T00:05:27.133Z,154.97
2023-02-16T00:07:57.741Z,160.47
2023-02-16T00:10:28.086Z,149.33
2023-02-16T00:13:14.319Z,141.73
2023-02-16T00:15:45.136Z,119.87
2023-02-16T00:18:19.324Z,129.93
2023-02-16T00:20:50.560Z,126.67
2023-02-16T00:23:19.921Z,121.00
2023-02-16T00:25:49.856Z,126.37
2023-02-16T00:28:22.348Z,128.53
2023-02-16T00:30:55.064Z,144.47
2023-02-16T00:33:24.609Z,117.37
2023-02-16T00:35:53.928Z,120.07
2023-02-16T00:38:23.569Z,124.47
2023-02-16T00:40:53.478Z,130.90
2023-02-16T00:43:28.859Z,119.13
2023-02-16T00:45:59.806Z,125.57
2023-02-16T00:48:29.228Z,128.10
2023-02-16T00:50:59.012Z,109.70
2023-02-16T00:53:29.845Z,109.23
2023-02-16T00:55:59.265Z,120.17
2023-02-16T00:58:32.548Z,133.77
2023-02-16T01:01:09.807Z,118.77
2023-02-16T01:03:39.714Z,119.23
2023-02-16T01:06:26.576Z,122.40
2023-02-16T01:09:19.782Z,108.50
2023-02-16T01:11:49.442Z,105.47
2023-02-16T01:14:19.303Z,115.47
2023-02-16T01:16:51.466Z,134.40
2023-02-16T01:19:21.241Z,136.83
2023-02-16T01:21:51.146Z,150.43
2023-02-16T01:24:22.937Z,138.57
2023-02-16T01:26:53.414Z,122.17
2023-02-16T01:29:24.561Z,130.27
2023-02-16T01:31:55.385Z,121.40
2023-02-16T01:34:25.903Z,132.20
2023-02-16T01:36:55.350Z,129.40
2023-02-16T01:39:24.551Z,127.83
2023-02-16T01:42:02.519Z,111.50
2023-02-16T01:44:38.634Z,125.07
2023-02-16T01:47:21.106Z,142.17
2023-02-16T01:49:50.769Z,119.00
2023-02-16T01:52:27.798Z,122.13
2023-02-16T01:55:02.788Z,115.27
2023-02-16T01:57:43.436Z,125.80
2023-02-16T02:00:23.320Z,132.07
2023-02-16T02:03:16.921Z,116.37
2023-02-16T02:05:44.982Z,129.77
2023-02-16T02:08:32.459Z,114.57
2023-02-16T02:11:11.633Z,139.77
2023-02-16T02:13:46.700Z,126.77
2023-02-16T02:16:19.648Z,119.23
2023-02-16T02:18:53.937Z,119.97
2023-02-16T02:22:04.091Z,143.23
2023-02-16T02:25:13.673Z,130.87
2023-02-16T02:27:52.562Z,134.10
2023-02-16T02:30:34.261Z,139.37
2023-02-16T02:33:18.020Z,143.90
2023-02-16T02:35:53.557Z,115.10
2023-02-16T02:38:31.602Z,121.10
2023-02-16T02:41:12.725Z,141.47
2023-02-16T02:43:48.337Z,123.73
2023-02-16T02:46:25.085Z,131.43
2023-02-16T02:48:55.509Z,131.20
2023-02-16T02:51:31.151Z,111.17
2023-02-16T02:54:36.943Z,135.93
2023-02-16T02:57:33.726Z,132.90
2023-02-16T03:00:26.930Z,129.53
2023-02-16T03:03:00.371Z,126.53
2023-02-16T03:05:33.362Z,136.13
2023-02-16T03:08:14.865Z,128.97
2023-02-16T03:11:06.997Z,127.83
2023-02-16T03:13:41.807Z,112.97
2023-02-16T03:16:16.864Z,128.83
2023-02-16T03:19:05.640Z,110.87
2023-02-16T03:21:53.635Z,122.17
2023-02-16T03:24:43.549Z,108.53
2023-02-16T03:27:32.432Z,103.50
2023-02-16T03:30:03.295Z,120.10
2023-02-16T03:32:36.827Z,131.70
2023-02-16T03:35:06.853Z,112.00
2023-02-16T03:37:37.020Z,129.57
2023-02-16T03:40:26.935Z,127.20
2023-02-16T03:42:59.137Z,113.77
2023-02-16T03:45:29.753Z,125.40
2023-02-16T03:48:00.733Z,133.63
2023-02-16T03:50:31.062Z,135.63
2023-02-16T03:53:08.416Z,114.13
2023-02-16T03:55:40.591Z,101.90
2023-02-16T03:58:12.691Z,111.43
2023-02-16T04:00:42.906Z,137.93
2023-02-16T04:03:16.359Z,120.07
2023-02-16T04:05:46.709Z,117.03
2023-02-16T04:08:16.307Z,145.57
2023-02-16T04:10:46.144Z,125.70
2023-02-16T04:13:14.396Z,116.50
2023-02-16T04:15:43.815Z,123.73
2023-02-16T04:18:18.851Z,121.17
2023-02-16T04:20:48.149Z,119.10
2023-02-16T04:23:17.796Z,114.13
2023-02-16T04:25:47.507Z,121.47
2023-02-16T04:28:18.006Z,116.63
2023-02-16T04:30:48.002Z,128.73
2023-02-16T04:33:20.151Z,121.30
2023-02-16T04:35:53.652Z,121.00
2023-02-16T04:38:24.412Z,123.93
2023-02-16T04:40:54.713Z,127.53
2023-02-16T04:43:24.239Z,108.27
2023-02-16T04:45:53.954Z,116.80
2023-02-16T04:48:25.157Z,101.67
2023-02-16T04:50:55.061Z,105.97
2023-02-16T04:53:24.548Z,114.60
2023-02-16T04:55:54.173Z,121.60
2023-02-16T04:58:23.952Z,115.40
2023-02-16T05:00:58.061Z,120.53
2023-02-16T05:03:30.017Z,123.10
2023-02-16T05:06:00.290Z,135.77
2023-02-16T05:08:31.064Z,122.70
2023-02-16T05:11:17.982Z,121.37
2023-02-16T05:14:04.602Z,111.97
2023-02-16T05:16:34.220Z,131.27
2023-02-16T05:19:05.334Z,122.10
2023-02-16T05:21:35.670Z,125.00
2023-02-16T05:24:07.048Z,114.40
2023-02-16T05:26:39.881Z,119.93
2023-02-16T05:29:08.993Z,103.77
2023-02-16T05:31:38.747Z,116.53
2023-02-16T05:34:12.267Z,140.30
2023-02-16T05:36:46.543Z,109.10
2023-02-16T05:39:16.008Z,138.90
2023-02-16T05:41:45.451Z,122.97
2023-02-16T05:44:15.159Z,110.57
2023-02-16T05:46:46.873Z,101.97
2023-02-16T05:49:19.271Z,103.63
2023-02-16T05:51:49.124Z,119.20
2023-02-16T05:54:19.290Z,103.23
2023-02-16T05:56:52.423Z,123.30
2023-02-16T05:59:22.764Z,117.63
2023-02-16T06:01:53.160Z,109.80
2023-02-16T06:04:26.404Z,118.50
2023-02-16T06:06:56.505Z,115.17
2023-02-16T06:09:28.043Z,113.97
2023-02-16T06:11:57.707Z,117.70
2023-02-16T06:14:27.274Z,121.00
2023-02-16T06:16:59.351Z,105.93
2023-02-16T06:19:31.809Z,114.73
2023-02-16T06:22:02.067Z,110.77
2023-02-16T06:24:31.473Z,109.47
2023-02-16T06:27:00.967Z,108.90
2023-02-16T06:29:30.523Z,102.33
2023-02-16T06:32:00.330Z,97.27
2023-02-16T06:34:33.528Z,111.60
2023-02-16T06:37:07.111Z,107.90
2023-02-16T06:39:37.493Z,111.67
2023-02-16T06:42:09.214Z,127.03
2023-02-16T06:44:45.350Z,110.90
2023-02-16T06:47:16.701Z,117.43
2023-02-16T06:49:48.366Z,118.17
2023-02-16T06:52:18.873Z,113.40
2023-02-16T06:54:48.630Z,131.80
2023-02-16T06:57:27.451Z,118.50
2023-02-16T06:59:57.657Z,114.53
2023-02-16T07:02:28.026Z,138.10
2023-02-16T07:04:59.085Z,131.77
2023-02-16T07:07:29.109Z,137.07
2023-02-16T07:09:59.150Z,145.20
2023-02-16T07:12:29.067Z,130.73
2023-02-16T07:14:58.953Z,126.20
2023-02-16T07:17:28.999Z,123.33
2023-02-16T07:20:01.065Z,129.67
2023-02-16T07:22:30.901Z,130.70
2023-02-16T07:25:01.365Z,137.07
2023-02-16T07:27:30.681Z,132.80
2023-02-16T07:30:00.359Z,122.40
2023-02-16T07:32:34.844Z,123.17
2023-02-16T07:35:06.085Z,127.90
2023-02-16T07:37:36.206Z,124.93
2023-02-16T07:40:06.164Z,125.23
2023-02-16T07:42:36.522Z,126.27
2023-02-16T07:45:08.051Z,116.37
2023-02-16T07:47:38.173Z,125.90
2023-02-16T07:50:11.724Z,126.27
2023-02-16T07:52:43.009Z,121.03
2023-02-16T07:55:13.867Z,128.60
2023-02-16T07:57:46.429Z,141.73
2023-02-16T08:00:17.762Z,134.00
2023-02-16T08:02:49.229Z,139.67
2023-02-16T08:05:21.938Z,129.43
2023-02-16T08:07:51.822Z,137.00
2023-02-16T08:10:30.874Z,131.47
2023-02-16T08:13:01.376Z,138.97
2023-02-16T08:15:32.185Z,138.53
2023-02-16T08:18:10.717Z,136.07
2023-02-16T08:21:02.337Z,129.13
2023-02-16T08:23:32.778Z,126.77
2023-02-16T08:26:11.384Z,127.97
2023-02-16T08:28:49.810Z,131.67
2023-02-16T08:31:24.105Z,123.17
2023-02-16T08:33:55.813Z,126.00
2023-02-16T08:36:34.557Z,139.33
2023-02-16T08:39:07.011Z,125.40
2023-02-16T08:41:39.133Z,126.13
2023-02-16T08:44:10.118Z,120.43
2023-02-16T08:46:41.532Z,128.23
2023-02-16T08:49:12.612Z,112.63
2023-02-16T08:51:46.570Z,120.47
2023-02-16T08:54:19.112Z,121.53
2023-02-16T08:56:50.106Z,106.53
2023-02-16T08:59:22.874Z,102.63
2023-02-16T09:01:52.661Z,87.67
2023-02-16T09:04:23.732Z,95.23
2023-02-16T09:06:54.805Z,84.00
2023-02-16T09:09:27.156Z,73.90
2023-02-16T09:11:58.131Z,68.90
2023-02-16T09:14:28.483Z,70.80
2023-02-16T09:16:58.720Z,69.83
2023-02-16T09:19:29.014Z,73.33
2023-02-16T09:22:00.173Z,64.33
2023-02-16T09:24:30.788Z,60.87
2023-02-16T09:27:00.458Z,62.90
2023-02-16T09:29:29.819Z,60.50
2023-02-16T09:31:59.494Z,52.83
2023-02-16T09:34:30.714Z,50.70
2023-02-16T09:37:02.199Z,50.78
2023-02-16T09:39:31.949Z,46.58
2023-02-16T09:42:24.934Z,52.40
2023-02-16T09:45:00.886Z,47.40
2023-02-16T09:47:35.272Z,46.28
2023-02-16T09:50:09.623Z,44.80
2023-02-16T09:52:43.080Z,43.60
2023-02-16T09:55:15.674Z,47.65
2023-02-16T09:57:57.977Z,47.97
2023-02-16T10:00:38.206Z,47.10
2023-02-16T10:03:19.311Z,43.67
2023-02-16T10:05:54.418Z,41.05
2023-02-16T10:08:31.805Z,43.78
2023-02-16T10:11:07.996Z,38.95
2023-02-16T10:13:44.404Z,38.60
2023-02-16T10:16:18.828Z,38.67
2023-02-16T10:18:54.004Z,38.50
2023-02-16T10:21:30.306Z,39.55
2023-02-16T10:24:05.777Z,34.55
2023-02-16T10:26:39.981Z,37.22
2023-02-16T10:29:16.103Z,36.47
2023-02-16T10:31:51.580Z,34.35
2023-02-16T10:34:23.754Z,36.40
2023-02-16T10:37:10.843Z,33.75
2023-02-16T10:39:50.742Z,34.05
2023-02-16T10:42:32.505Z,28.10
2023-02-16T10:45:08.576Z,29.73
2023-02-16T10:47:41.351Z,30.25
2023-02-16T10:50:28.007Z,34.28
2023-02-16T10:53:04.236Z,31.63
2023-02-16T10:55:36.759Z,31.90
2023-02-16T10:58:06.571Z,31.63
2023-02-16T11:00:55.129Z,31.40
2023-02-16T11:03:30.314Z,33.05
2023-02-16T11:06:16.053Z,32.50
2023-02-16T11:08:56.282Z,33.35
2023-02-16T11:11:30.950Z,32.92
2023-02-16T11:14:08.632Z,28.35
2023-02-16T11:16:39.411Z,31.08
2023-02-16T11:19:32.302Z,31.25
2023-02-16T11:22:02.935Z,32.40
2023-02-16T11:24:34.304Z,31.55
2023-02-16T11:27:08.721Z,33.15
2023-02-16T11:29:38.973Z,31.00
2023-02-16T11:32:13.899Z,30.80
2023-02-16T11:34:45.593Z,34.42
2023-02-16T11:37:29.232Z,33.63
2023-02-16T11:40:04.142Z,31.35
2023-02-16T11:42:44.126Z,28.98
2023-02-16T11:45:38.119Z,32.58
2023-02-16T11:48:33.401Z,33.75
2023-02-16T11:51:05.957Z,34.42
2023-02-16T11:53:47.354Z,30.80
2023-02-16T11:56:49.980Z,31.73
2023-02-16T11:59:26.731Z,32.35
2023-02-16T12:02:32.170Z,34.97
2023-02-16T12:05:23.454Z,42.97
2023-02-16T12:08:20.571Z,34.85
2023-02-16T12:11:16.291Z,34.63
2023-02-16T12:13:54.715Z,40.00
2023-02-16T12:19:38.478Z,36.83
2023-02-16T12:22:21.339Z,34.90
2023-02-16T12:25:24.303Z,31.20
2023-02-16T12:28:05.601Z,35.60
2023-02-16T12:31:03.377Z,34.15
2023-02-16T12:33:54.032Z,34.00
2023-02-16T12:36:48.787Z,33.67
2023-02-16T12:39:56.878Z,35.30
2023-02-16T12:42:50.607Z,36.07
2023-02-16T12:45:27.539Z,37.95
2023-02-16T12:52:29.547Z,38.47
2023-02-16T12:55:19.471Z,35.80
2023-02-16T12:58:06.643Z,41.63
2023-02-16T13:05:51.160Z,37.70
2023-02-16T13:08:50.554Z,36.20
2023-02-16T13:11:41.033Z,37.47
2023-02-16T13:14:21.842Z,43.53
2023-02-16T13:16:57.026Z,35.33
2023-02-16T13:19:34.596Z,38.50
2023-02-16T13:22:38.729Z,37.97
2023-02-16T13:25:53.489Z,45.83
2023-02-16T13:28:44.664Z,36.93
2023-02-16T13:31:30.100Z,39.93
2023-02-16T13:34:40.604Z,46.10
2023-02-16T13:37:37.885Z,38.63
2023-02-16T13:40:34.227Z,42.63
2023-02-16T13:43:16.313Z,44.57
2023-02-16T13:46:08.090Z,43.92
2023-02-16T13:48:43.008Z,41.83
2023-02-16T13:51:19.859Z,35.83
2023-02-16T13:53:58.157Z,40.10
2023-02-16T13:56:38.093Z,37.65
2023-02-16T13:59:58.829Z,36.33
2023-02-16T14:02:55.198Z,40.20
2023-02-16T14:05:37.696Z,36.67
2023-02-16T14:08:29.115Z,36.08
2023-02-16T14:11:02.556Z,40.25
2023-02-16T14:14:01.418Z,38.35
2023-02-16T14:16:35.805Z,42.17
2023-02-16T14:19:20.720Z,38.22
2023-02-16T14:21:52.081Z,40.40
2023-02-16T14:24:33.252Z,40.35
2023-02-16T14:27:05.379Z,40.58
2023-02-16T14:29:40.385Z,45.60
2023-02-16T14:32:26.743Z,46.00
2023-02-16T14:35:08.677Z,38.60
2023-02-16T14:37:41.543Z,39.50
2023-02-16T14:40:22.206Z,38.55
2023-02-16T14:42:56.874Z,58.70
2023-02-16T14:46:00.414Z,44.80
2023-02-16T14:48:53.499Z,44.63
2023-02-16T14:51:43.344Z,48.25
2023-02-16T14:54:40.162Z,43.58
2023-02-16T14:57:18.366Z,42.75
2023-02-16T15:00:15.835Z,40.47
2023-02-16T15:03:02.444Z,53.25
2023-02-16T15:05:38.256Z,48.83
2023-02-16T15:08:23.755Z,50.17
2023-02-16T15:10:55.980Z,49.20
2023-02-16T15:13:29.210Z,45.13
2023-02-16T15:16:04.399Z,47.92
2023-02-16T15:18:39.088Z,50.23
2023-02-16T15:21:26.895Z,54.05
2023-02-16T15:23:58.501Z,48.47
2023-02-16T15:26:30.761Z,45.87
2023-02-16T15:29:06.176Z,43.50
2023-02-16T15:31:44.337Z,45.13
2023-02-16T15:34:45.435Z,41.87
2023-02-16T15:37:33.486Z,40.73
2023-02-16T15:40:30.931Z,42.67
2023-02-16T15:43:08.341Z,41.40
2023-02-16T15:45:40.523Z,44.40
2023-02-16T15:48:21.019Z,42.97
2023-02-16T15:50:54.844Z,43.90
2023-02-16T15:53:39.558Z,47.73
2023-02-16T15:56:36.771Z,51.27
2023-02-16T15:59:19.710Z,49.30
2023-02-16T16:01:50.555Z,53.00
2023-02-16T16:04:24.477Z,50.47
2023-02-16T16:06:55.366Z,53.47
2023-02-16T16:09:31.372Z,52.93
2023-02-16T16:12:06.298Z,58.27
2023-02-16T16:14:39.584Z,61.17
2023-02-16T16:17:23.100Z,58.47
2023-02-16T16:19:54.223Z,51.00
2023-02-16T16:22:37.535Z,52.27
2023-02-16T16:25:47.002Z,53.87
2023-02-16T16:28:36.657Z,50.07
2023-02-16T16:31:12.934Z,52.50
2023-02-16T16:33:59.866Z,50.60
2023-02-16T16:36:32.468Z,50.70
2023-02-16T16:39:26.283Z,57.70
2023-02-16T16:42:20.814Z,54.80
2023-02-16T16:45:36.360Z,57.23
2023-02-16T16:48:16.228Z,52.97
2023-02-16T16:50:45.827Z,53.10
2023-02-16T16:53:57.765Z,53.23
2023-02-16T16:56:28.135Z,59.57
2023-02-16T16:59:19.567Z,54.07
2023-02-16T17:01:53.882Z,67.27
2023-02-16T17:04:48.957Z,62.50
2023-02-16T17:07:19.642Z,73.70
2023-02-16T17:09:56.160Z,64.27
2023-02-16T17:12:33.606Z,84.37
2023-02-16T17:15:31.084Z,70.70
2023-02-16T17:18:03.300Z,63.63
2023-02-16T17:20:53.914Z,63.97
2023-02-16T17:23:39.134Z,56.23
2023-02-16T17:26:12.408Z,54.53
2023-02-16T17:28:44.568Z,59.50
2023-02-16T17:31:20.522Z,51.63
2023-02-16T17:33:58.205Z,54.53
2023-02-16T17:36:32.559Z,54.40
2023-02-16T17:39:04.290Z,51.20
2023-02-16T17:41:42.400Z,53.40
2023-02-16T17:44:13.154Z,54.10
2023-02-16T17:46:55.109Z,63.60
2023-02-16T17:50:17.122Z,69.57
2023-02-16T17:52:50.751Z,72.03
2023-02-16T17:55:20.938Z,86.70
2023-02-16T17:57:50.719Z,88.70
2023-02-16T18:00:23.131Z,79.67
2023-02-16T18:06:03.693Z,67.03
2023-02-16T18:08:42.777Z,68.20
2023-02-16T18:11:15.010Z,69.70
2023-02-16T18:13:47.810Z,74.60
2023-02-16T18:16:27.349Z,71.80
2023-02-16T18:18:57.837Z,78.33
2023-02-16T18:21:27.408Z,95.30
2023-02-16T18:24:00.991Z,113.80
2023-02-16T18:26:35.981Z,105.93
2023-02-16T18:29:06.768Z,87.53
2023-02-16T18:31:37.923Z,86.60
2023-02-16T18:34:10.375Z,79.47
2023-02-16T18:36:42.914Z,72.27
2023-02-16T18:39:13.843Z,79.97
2023-02-16T18:41:43.920Z,80.33
2023-02-16T18:44:14.040Z,79.43
2023-02-16T18:46:43.464Z,73.37
2023-02-16T18:49:12.920Z,73.83
2023-02-16T18:51:43.077Z,78.80
2023-02-16T18:54:13.976Z,87.03
2023-02-16T18:56:44.666Z,96.37
2023-02-16T18:59:14.162Z,86.07
2023-02-16T19:01:43.583Z,80.97
2023-02-16T19:04:12.942Z,89.43
2023-02-16T19:06:42.876Z,81.83
2023-02-16T19:09:14.925Z,89.30
2023-02-16T19:11:44.575Z,76.80
2023-02-16T19:14:14.766Z,93.53
2023-02-16T19:16:44.849Z,91.83
2023-02-16T19:19:14.874Z,94.67
2023-02-16T19:21:44.893Z,80.80
2023-02-16T19:24:15.740Z,89.07
2023-02-16T19:26:45.491Z,80.07
2023-02-16T19:29:14.983Z,94.43
2023-02-16T19:31:44.545Z,84.63
2023-02-16T19:34:14.258Z,85.70
2023-02-16T19:36:43.798Z,68.43
2023-02-16T19:39:13.880Z,75.13
2023-02-16T19:41:48.703Z,80.43
2023-02-16T19:44:18.371Z,75.20
2023-02-16T19:46:48.474Z,76.47
2023-02-16T19:49:21.578Z,78.33
2023-02-16T19:51:51.324Z,81.63
2023-02-16T19:54:20.855Z,92.47
2023-02-16T19:56:54.293Z,82.23
2023-02-16T19:59:23.698Z,93.30
2023-02-16T20:01:55.335Z,84.00
2023-02-16T20:04:25.505Z,98.87
2023-02-16T20:06:56.783Z,92.33
2023-02-16T20:09:30.213Z,89.50
2023-02-16T20:12:14.510Z,82.07
2023-02-16T20:14:44.074Z,91.77
2023-02-16T20:17:25.728Z,89.80
2023-02-16T20:19:56.882Z,79.27
2023-02-16T20:22:26.185Z,87.57
2023-02-16T20:24:56.727Z,79.00
2023-02-16T20:27:41.356Z,102.97
2023-02-16T20:30:20.025Z,92.40
2023-02-16T20:32:52.861Z,83.87
2023-02-16T20:35:22.636Z,107.70
2023-02-16T20:37:55.657Z,114.30
2023-02-16T20:40:26.455Z,122.77
2023-02-16T20:42:57.849Z,96.67
2023-02-16T20:45:27.325Z,108.13
2023-02-16T20:47:56.680Z,129.60
2023-02-16T20:50:28.779Z,117.63
2023-02-16T20:52:58.287Z,138.70
2023-02-16T20:55:27.284Z,133.13
2023-02-16T20:57:58.580Z,136.53
2023-02-16T21:00:30.524Z,115.67
2023-02-16T21:03:00.757Z,128.63
2023-02-16T21:05:30.094Z,120.90
2023-02-16T21:07:59.890Z,112.20
2023-02-16T21:10:29.815Z,105.67
2023-02-16T21:13:01.748Z,102.20
2023-02-16T21:15:31.980Z,95.73
2023-02-16T21:18:01.317Z,94.40
2023-02-16T21:20:30.647Z,102.97
2023-02-16T21:23:04.341Z,101.20
2023-02-16T21:25:34.099Z,101.73
2023-02-16T21:28:05.021Z,94.17
2023-02-16T21:30:34.353Z,98.07
2023-02-16T21:33:03.636Z,104.43
2023-02-16T21:35:34.551Z,104.07
2023-02-16T21:38:05.137Z,106.80
2023-02-16T21:40:51.755Z,108.63
2023-02-16T21:43:22.648Z,106.60
2023-02-16T21:46:01.681Z,92.77
2023-02-16T21:48:50.546Z,100.57
2023-02-16T21:51:22.244Z,92.73
2023-02-16T21:53:53.799Z,94.70
2023-02-16T21:56:31.060Z,89.57
2023-02-16T21:59:02.403Z,82.77
2023-02-16T22:01:34.348Z,87.43
2023-02-16T22:04:04.122Z,94.27
2023-02-16T22:06:35.230Z,90.67
2023-02-16T22:09:10.303Z,89.57
2023-02-16T22:11:40.836Z,88.87
2023-02-16T22:14:12.736Z,86.17
2023-02-16T22:16:42.446Z,96.10
2023-02-16T22:19:15.500Z,92.13
2023-02-16T22:21:48.340Z,84.53
2023-02-16T22:24:20.437Z,89.23
2023-02-16T22:26:51.749Z,87.80
2023-02-16T22:29:22.291Z,96.20
2023-02-16T22:31:51.891Z,94.23
2023-02-16T22:34:23.275Z,101.87
2023-02-16T22:36:52.884Z,107.37
2023-02-16T22:39:22.314Z,93.90
2023-02-16T22:41:52.823Z,110.47
2023-02-16T22:44:23.541Z,115.23
2023-02-16T22:46:52.637Z,107.80
2023-02-16T22:49:22.186Z,105.73
2023-02-16T22:51:52.527Z,105.47
2023-02-16T22:54:22.696Z,103.37
2023-02-16T22:56:52.068Z,104.03
2023-02-16T22:59:23.385Z,105.87
2023-02-16T23:01:52.938Z,107.07
2023-02-16T23:04:22.125Z,107.50
2023-02-16T23:06:51.366Z,105.73
2023-02-16T23:09:23.662Z,114.03
2023-02-16T23:11:53.136Z,102.73
2023-02-16T23:14:23.957Z,106.07
2023-02-16T23:16:55.163Z,105.03
2023-02-16T23:19:26.897Z,104.00
2023-02-16T23:21:56.534Z,96.83
2023-02-16T23:24:26.323Z,98.53
2023-02-16T23:26:55.995Z,84.73
2023-02-16T23:29:26.870Z,87.30
2023-02-16T23:31:56.304Z,89.90
2023-02-16T23:34:25.422Z,95.67
2023-02-16T23:36:54.920Z,96.37
2023-02-16T23:39:23.971Z,95.80
2023-02-16T23:41:53.821Z,93.00
2023-02-16T23:44:23.204Z,86.60
2023-02-16T23:46:54.236Z,87.33
2023-02-16T23:49:24.030Z,88.53
2023-02-16T23:51:52.835Z,87.90
2023-02-16T23:54:22.476Z,99.03
2023-02-16T23:56:52.866Z,98.90
2023-02-16T23:59:22.444Z,93.93
